sensor_id;sensor_type;location;lat;lon;timestamp;P1;durP1;ratioP1;P2;durP2;ratioP2
63945;SDS011;50122;56.330;43.838;2023-04-12T00:00:59;36.85;;;17.98;;
63945;SDS011;50122;56.330;43.838;2023-04-12T00:03:26;34.13;;;17.52;;
63945;SDS011;50122;56.330;43.838;2023-04-12T00:05:54;34.17;;;18.17;;
63945;SDS011;50122;56.330;43.838;2023-04-12T00:08:21;33.42;;;17.58;;
63945;SDS011;50122;56.330;43.838;2023-04-12T00:10:59;33.38;;;17.85;;
63945;SDS011;50122;56.330;43.838;2023-04-12T00:13:28;32.78;;;18.40;;
63945;SDS011;50122;56.330;43.838;2023-04-12T00:15:55;41.47;;;18.75;;
63945;SDS011;50122;56.330;43.838;2023-04-12T00:18:22;35.08;;;18.23;;
63945;SDS011;50122;56.330;43.838;2023-04-12T00:20:51;37.88;;;18.30;;
63945;SDS011;50122;56.330;43.838;2023-04-12T00:23:18;38.72;;;18.73;;
63945;SDS011;50122;56.330;43.838;2023-04-12T00:25:46;40.83;;;18.90;;
63945;SDS011;50122;56.330;43.838;2023-04-12T00:28:13;30.63;;;16.45;;
63945;SDS011;50122;56.330;43.838;2023-04-12T00:30:41;38.30;;;17.77;;
63945;SDS011;50122;56.330;43.838;2023-04-12T00:33:08;33.20;;;16.73;;
63945;SDS011;50122;56.330;43.838;2023-04-12T00:35:34;32.33;;;16.55;;
63945;SDS011;50122;56.330;43.838;2023-04-12T00:38:01;32.45;;;16.83;;
63945;SDS011;50122;56.330;43.838;2023-04-12T00:40:39;30.25;;;16.17;;
63945;SDS011;50122;56.330;43.838;2023-04-12T00:43:07;30.80;;;16.95;;
63945;SDS011;50122;56.330;43.838;2023-04-12T00:45:35;36.90;;;17.48;;
63945;SDS011;50122;56.330;43.838;2023-04-12T00:48:05;31.65;;;15.57;;
63945;SDS011;50122;56.330;43.838;2023-04-12T00:50:32;30.27;;;15.90;;
63945;SDS011;50122;56.330;43.838;2023-04-12T00:53:01;35.03;;;17.98;;
63945;SDS011;50122;56.330;43.838;2023-04-12T00:55:29;40.03;;;18.02;;
63945;SDS011;50122;56.330;43.838;2023-04-12T00:57:56;40.17;;;18.73;;
63945;SDS011;50122;56.330;43.838;2023-04-12T01:00:22;34.30;;;17.73;;
63945;SDS011;50122;56.330;43.838;2023-04-12T01:02:49;41.80;;;18.17;;
63945;SDS011;50122;56.330;43.838;2023-04-12T01:05:18;39.83;;;17.15;;
63945;SDS011;50122;56.330;43.838;2023-04-12T01:10:52;34.75;;;17.15;;
63945;SDS011;50122;56.330;43.838;2023-04-12T01:24:29;31.92;;;16.90;;
63945;SDS011;50122;56.330;43.838;2023-04-12T01:27:02;34.70;;;17.85;;
63945;SDS011;50122;56.330;43.838;2023-04-12T01:29:36;32.72;;;15.40;;
63945;SDS011;50122;56.330;43.838;2023-04-12T01:32:04;37.33;;;17.77;;
63945;SDS011;50122;56.330;43.838;2023-04-12T01:34:32;47.60;;;17.60;;
63945;SDS011;50122;56.330;43.838;2023-04-12T01:37:01;39.53;;;17.88;;
63945;SDS011;50122;56.330;43.838;2023-04-12T01:39:28;37.25;;;17.70;;
63945;SDS011;50122;56.330;43.838;2023-04-12T01:41:57;37.58;;;18.48;;
63945;SDS011;50122;56.330;43.838;2023-04-12T01:44:24;41.33;;;19.13;;
63945;SDS011;50122;56.330;43.838;2023-04-12T01:46:53;45.80;;;19.20;;
63945;SDS011;50122;56.330;43.838;2023-04-12T01:49:20;39.88;;;18.25;;
63945;SDS011;50122;56.330;43.838;2023-04-12T01:51:54;35.10;;;18.23;;
63945;SDS011;50122;56.330;43.838;2023-04-12T01:54:29;39.85;;;19.13;;
63945;SDS011;50122;56.330;43.838;2023-04-12T01:56:59;33.42;;;18.17;;
63945;SDS011;50122;56.330;43.838;2023-04-12T01:59:33;32.55;;;18.77;;
63945;SDS011;50122;56.330;43.838;2023-04-12T02:02:04;38.08;;;18.23;;
63945;SDS011;50122;56.330;43.838;2023-04-12T02:04:32;37.33;;;18.08;;
63945;SDS011;50122;56.330;43.838;2023-04-12T02:07:01;42.30;;;19.23;;
63945;SDS011;50122;56.330;43.838;2023-04-12T02:09:28;34.88;;;19.23;;
63945;SDS011;50122;56.330;43.838;2023-04-12T02:11:58;38.13;;;18.42;;
63945;SDS011;50122;56.330;43.838;2023-04-12T02:14:24;37.53;;;18.83;;
63945;SDS011;50122;56.330;43.838;2023-04-12T02:16:52;33.78;;;19.83;;
63945;SDS011;50122;56.330;43.838;2023-04-12T02:19:21;33.92;;;19.25;;
63945;SDS011;50122;56.330;43.838;2023-04-12T02:21:47;34.40;;;17.90;;
63945;SDS011;50122;56.330;43.838;2023-04-12T02:24:15;35.97;;;20.45;;
63945;SDS011;50122;56.330;43.838;2023-04-12T02:26:41;41.47;;;19.98;;
63945;SDS011;50122;56.330;43.838;2023-04-12T02:29:08;43.05;;;20.92;;
63945;SDS011;50122;56.330;43.838;2023-04-12T02:31:36;37.97;;;21.30;;
63945;SDS011;50122;56.330;43.838;2023-04-12T02:34:04;47.53;;;21.58;;
63945;SDS011;50122;56.330;43.838;2023-04-12T02:36:31;42.65;;;22.73;;
63945;SDS011;50122;56.330;43.838;2023-04-12T02:38:58;40.58;;;22.13;;
63945;SDS011;50122;56.330;43.838;2023-04-12T02:41:25;38.63;;;21.08;;
63945;SDS011;50122;56.330;43.838;2023-04-12T02:43:51;48.47;;;22.58;;
63945;SDS011;50122;56.330;43.838;2023-04-12T02:46:20;37.10;;;20.35;;
63945;SDS011;50122;56.330;43.838;2023-04-12T02:48:49;40.78;;;21.55;;
63945;SDS011;50122;56.330;43.838;2023-04-12T02:51:15;40.28;;;21.92;;
63945;SDS011;50122;56.330;43.838;2023-04-12T02:53:42;42.03;;;20.70;;
63945;SDS011;50122;56.330;43.838;2023-04-12T02:56:09;33.35;;;20.33;;
63945;SDS011;50122;56.330;43.838;2023-04-12T02:58:36;42.28;;;21.13;;
63945;SDS011;50122;56.330;43.838;2023-04-12T03:01:06;40.38;;;21.83;;
63945;SDS011;50122;56.330;43.838;2023-04-12T03:03:38;43.67;;;21.20;;
63945;SDS011;50122;56.330;43.838;2023-04-12T03:06:06;43.92;;;21.83;;
63945;SDS011;50122;56.330;43.838;2023-04-12T03:08:35;40.80;;;21.48;;
63945;SDS011;50122;56.330;43.838;2023-04-12T03:11:03;40.78;;;21.77;;
63945;SDS011;50122;56.330;43.838;2023-04-12T03:13:29;42.47;;;22.73;;
63945;SDS011;50122;56.330;43.838;2023-04-12T03:15:57;43.38;;;22.85;;
63945;SDS011;50122;56.330;43.838;2023-04-12T03:18:24;45.53;;;25.05;;
63945;SDS011;50122;56.330;43.838;2023-04-12T03:20:52;44.75;;;25.85;;
63945;SDS011;50122;56.330;43.838;2023-04-12T03:23:19;46.50;;;26.52;;
63945;SDS011;50122;56.330;43.838;2023-04-12T03:25:46;49.90;;;26.92;;
63945;SDS011;50122;56.330;43.838;2023-04-12T03:28:12;57.28;;;27.42;;
63945;SDS011;50122;56.330;43.838;2023-04-12T03:30:41;46.85;;;24.52;;
63945;SDS011;50122;56.330;43.838;2023-04-12T03:33:08;46.10;;;23.52;;
63945;SDS011;50122;56.330;43.838;2023-04-12T03:35:35;38.45;;;24.88;;
63945;SDS011;50122;56.330;43.838;2023-04-12T03:38:03;42.88;;;25.65;;
63945;SDS011;50122;56.330;43.838;2023-04-12T03:40:29;46.90;;;26.25;;
63945;SDS011;50122;56.330;43.838;2023-04-12T03:42:56;39.90;;;25.25;;
63945;SDS011;50122;56.330;43.838;2023-04-12T03:45:26;42.00;;;25.92;;
63945;SDS011;50122;56.330;43.838;2023-04-12T03:47:53;45.90;;;25.10;;
63945;SDS011;50122;56.330;43.838;2023-04-12T03:50:20;64.75;;;25.75;;
63945;SDS011;50122;56.330;43.838;2023-04-12T03:52:48;93.55;;;27.73;;
63945;SDS011;50122;56.330;43.838;2023-04-12T03:55:15;62.58;;;26.02;;
63945;SDS011;50122;56.330;43.838;2023-04-12T03:57:43;58.33;;;24.20;;
63945;SDS011;50122;56.330;43.838;2023-04-12T04:00:10;57.97;;;24.35;;
63945;SDS011;50122;56.330;43.838;2023-04-12T04:02:37;146.15;;;29.80;;
63945;SDS011;50122;56.330;43.838;2023-04-12T04:05:04;69.20;;;24.73;;
63945;SDS011;50122;56.330;43.838;2023-04-12T04:07:31;69.35;;;24.33;;
63945;SDS011;50122;56.330;43.838;2023-04-12T04:09:58;72.78;;;23.90;;
63945;SDS011;50122;56.330;43.838;2023-04-12T04:12:26;67.82;;;24.73;;
63945;SDS011;50122;56.330;43.838;2023-04-12T04:14:54;77.65;;;25.75;;
63945;SDS011;50122;56.330;43.838;2023-04-12T04:17:20;48.70;;;22.42;;
63945;SDS011;50122;56.330;43.838;2023-04-12T04:19:47;41.65;;;21.95;;
63945;SDS011;50122;56.330;43.838;2023-04-12T04:22:14;40.47;;;21.17;;
63945;SDS011;50122;56.330;43.838;2023-04-12T04:24:43;45.53;;;23.70;;
63945;SDS011;50122;56.330;43.838;2023-04-12T04:27:09;54.25;;;29.05;;
63945;SDS011;50122;56.330;43.838;2023-04-12T04:29:36;50.58;;;27.52;;
63945;SDS011;50122;56.330;43.838;2023-04-12T04:32:10;43.38;;;26.02;;
63945;SDS011;50122;56.330;43.838;2023-04-12T04:34:38;38.15;;;22.45;;
63945;SDS011;50122;56.330;43.838;2023-04-12T04:37:05;38.55;;;21.90;;
63945;SDS011;50122;56.330;43.838;2023-04-12T04:39:32;28.45;;;15.70;;
63945;SDS011;50122;56.330;43.838;2023-04-12T04:41:59;35.38;;;17.83;;
63945;SDS011;50122;56.330;43.838;2023-04-12T04:44:25;28.13;;;16.27;;
63945;SDS011;50122;56.330;43.838;2023-04-12T04:46:52;32.80;;;15.70;;
63945;SDS011;50122;56.330;43.838;2023-04-12T04:49:18;33.65;;;15.43;;
63945;SDS011;50122;56.330;43.838;2023-04-12T04:51:45;39.33;;;15.68;;
63945;SDS011;50122;56.330;43.838;2023-04-12T04:54:12;27.42;;;15.55;;
63945;SDS011;50122;56.330;43.838;2023-04-12T04:56:42;28.52;;;16.45;;
63945;SDS011;50122;56.330;43.838;2023-04-12T04:59:09;29.13;;;14.48;;
63945;SDS011;50122;56.330;43.838;2023-04-12T05:01:35;24.70;;;16.42;;
63945;SDS011;50122;56.330;43.838;2023-04-12T05:04:04;26.52;;;17.85;;
63945;SDS011;50122;56.330;43.838;2023-04-12T05:06:31;29.52;;;17.88;;
63945;SDS011;50122;56.330;43.838;2023-04-12T05:08:58;33.85;;;16.50;;
63945;SDS011;50122;56.330;43.838;2023-04-12T05:11:29;23.45;;;14.70;;
63945;SDS011;50122;56.330;43.838;2023-04-12T05:13:55;21.27;;;14.07;;
63945;SDS011;50122;56.330;43.838;2023-04-12T05:16:22;24.70;;;15.07;;
63945;SDS011;50122;56.330;43.838;2023-04-12T05:18:50;22.48;;;14.07;;
63945;SDS011;50122;56.330;43.838;2023-04-12T05:21:17;26.45;;;15.90;;
63945;SDS011;50122;56.330;43.838;2023-04-12T05:23:44;26.27;;;15.95;;
63945;SDS011;50122;56.330;43.838;2023-04-12T05:26:12;24.45;;;13.52;;
63945;SDS011;50122;56.330;43.838;2023-04-12T05:28:38;17.98;;;11.15;;
63945;SDS011;50122;56.330;43.838;2023-04-12T05:31:05;19.40;;;11.98;;
63945;SDS011;50122;56.330;43.838;2023-04-12T05:33:33;22.17;;;11.20;;
63945;SDS011;50122;56.330;43.838;2023-04-12T05:35:59;18.73;;;10.20;;
63945;SDS011;50122;56.330;43.838;2023-04-12T05:38:26;16.05;;;9.90;;
63945;SDS011;50122;56.330;43.838;2023-04-12T20:41:50;152.02;;;33.60;;
63945;SDS011;50122;56.330;43.838;2023-04-12T20:44:20;210.32;;;37.45;;
63945;SDS011;50122;56.330;43.838;2023-04-12T20:46:47;171.18;;;33.67;;
63945;SDS011;50122;56.330;43.838;2023-04-12T20:49:14;117.65;;;32.53;;
63945;SDS011;50122;56.330;43.838;2023-04-12T20:51:42;82.68;;;31.75;;
63945;SDS011;50122;56.330;43.838;2023-04-12T20:54:12;85.30;;;32.05;;
63945;SDS011;50122;56.330;43.838;2023-04-12T20:56:38;90.28;;;29.63;;
63945;SDS011;50122;56.330;43.838;2023-04-12T20:59:06;74.28;;;28.77;;
63945;SDS011;50122;56.330;43.838;2023-04-12T21:01:33;79.95;;;29.95;;
63945;SDS011;50122;56.330;43.838;2023-04-12T21:03:59;86.13;;;28.05;;
63945;SDS011;50122;56.330;43.838;2023-04-12T21:06:31;104.82;;;32.40;;
63945;SDS011;50122;56.330;43.838;2023-04-12T21:08:59;102.30;;;30.63;;
63945;SDS011;50122;56.330;43.838;2023-04-12T21:11:27;88.78;;;28.30;;
63945;SDS011;50122;56.330;43.838;2023-04-12T21:13:53;80.75;;;30.15;;
63945;SDS011;50122;56.330;43.838;2023-04-12T21:16:20;79.57;;;29.42;;
63945;SDS011;50122;56.330;43.838;2023-04-12T21:18:50;76.35;;;27.00;;
63945;SDS011;50122;56.330;43.838;2023-04-12T21:21:18;82.00;;;26.98;;
63945;SDS011;50122;56.330;43.838;2023-04-12T21:23:47;77.97;;;27.15;;
63945;SDS011;50122;56.330;43.838;2023-04-12T21:26:15;66.68;;;26.42;;
63945;SDS011;50122;56.330;43.838;2023-04-12T21:28:42;75.75;;;27.48;;
63945;SDS011;50122;56.330;43.838;2023-04-12T21:31:09;67.57;;;24.48;;
63945;SDS011;50122;56.330;43.838;2023-04-12T21:33:39;56.60;;;24.63;;
63945;SDS011;50122;56.330;43.838;2023-04-12T21:36:08;56.80;;;23.92;;
63945;SDS011;50122;56.330;43.838;2023-04-12T21:38:37;61.00;;;25.27;;
63945;SDS011;50122;56.330;43.838;2023-04-12T21:41:05;69.47;;;25.90;;
63945;SDS011;50122;56.330;43.838;2023-04-12T21:43:34;57.33;;;25.70;;
63945;SDS011;50122;56.330;43.838;2023-04-12T21:46:03;57.47;;;24.73;;
63945;SDS011;50122;56.330;43.838;2023-04-12T21:48:34;69.78;;;25.80;;
63945;SDS011;50122;56.330;43.838;2023-04-12T21:51:02;67.15;;;25.30;;
63945;SDS011;50122;56.330;43.838;2023-04-12T21:53:29;76.88;;;26.75;;
63945;SDS011;50122;56.330;43.838;2023-04-12T21:55:55;52.22;;;23.73;;
63945;SDS011;50122;56.330;43.838;2023-04-12T21:58:24;59.95;;;25.05;;
63945;SDS011;50122;56.330;43.838;2023-04-12T22:00:55;69.55;;;27.00;;
63945;SDS011;50122;56.330;43.838;2023-04-12T22:03:23;57.60;;;26.08;;
63945;SDS011;50122;56.330;43.838;2023-04-12T22:05:50;66.25;;;25.83;;
63945;SDS011;50122;56.330;43.838;2023-04-12T22:08:30;69.32;;;27.67;;
63945;SDS011;50122;56.330;43.838;2023-04-12T22:10:59;64.15;;;26.42;;
63945;SDS011;50122;56.330;43.838;2023-04-12T22:13:26;60.72;;;28.17;;
63945;SDS011;50122;56.330;43.838;2023-04-12T22:15:53;81.68;;;28.70;;
63945;SDS011;50122;56.330;43.838;2023-04-12T22:18:20;76.22;;;28.58;;
63945;SDS011;50122;56.330;43.838;2023-04-12T22:20:47;66.88;;;28.15;;
63945;SDS011;50122;56.330;43.838;2023-04-12T22:23:14;73.13;;;29.67;;
63945;SDS011;50122;56.330;43.838;2023-04-12T22:25:44;70.72;;;31.27;;
63945;SDS011;50122;56.330;43.838;2023-04-12T22:28:11;69.28;;;30.15;;
63945;SDS011;50122;56.330;43.838;2023-04-12T22:30:37;62.83;;;28.33;;
63945;SDS011;50122;56.330;43.838;2023-04-12T22:33:05;116.32;;;32.47;;
63945;SDS011;50122;56.330;43.838;2023-04-12T22:35:33;71.20;;;29.52;;
63945;SDS011;50122;56.330;43.838;2023-04-12T22:38:01;79.07;;;30.55;;
63945;SDS011;50122;56.330;43.838;2023-04-12T22:40:29;61.55;;;29.58;;
63945;SDS011;50122;56.330;43.838;2023-04-12T22:42:57;66.20;;;28.77;;
63945;SDS011;50122;56.330;43.838;2023-04-12T22:45:24;61.08;;;28.25;;
63945;SDS011;50122;56.330;43.838;2023-04-12T22:47:54;60.25;;;27.88;;
63945;SDS011;50122;56.330;43.838;2023-04-12T22:50:24;59.88;;;27.00;;
63945;SDS011;50122;56.330;43.838;2023-04-12T22:52:50;51.70;;;25.63;;
63945;SDS011;50122;56.330;43.838;2023-04-12T22:55:20;67.30;;;27.13;;
63945;SDS011;50122;56.330;43.838;2023-04-12T22:57:49;54.03;;;26.38;;
63945;SDS011;50122;56.330;43.838;2023-04-12T23:00:16;57.95;;;25.58;;
63945;SDS011;50122;56.330;43.838;2023-04-12T23:02:43;50.13;;;25.40;;
63945;SDS011;50122;56.330;43.838;2023-04-12T23:05:12;54.60;;;24.42;;
63945;SDS011;50122;56.330;43.838;2023-04-12T23:07:39;59.25;;;26.15;;
63945;SDS011;50122;56.330;43.838;2023-04-12T23:10:07;54.92;;;26.52;;
63945;SDS011;50122;56.330;43.838;2023-04-12T23:12:36;57.53;;;26.75;;
63945;SDS011;50122;56.330;43.838;2023-04-12T23:15:04;59.28;;;27.13;;
63945;SDS011;50122;56.330;43.838;2023-04-12T23:17:33;54.05;;;25.73;;
63945;SDS011;50122;56.330;43.838;2023-04-12T23:19:59;56.83;;;24.98;;
63945;SDS011;50122;56.330;43.838;2023-04-12T23:22:36;54.30;;;25.30;;
63945;SDS011;50122;56.330;43.838;2023-04-12T23:25:25;58.90;;;24.13;;
63945;SDS011;50122;56.330;43.838;2023-04-12T23:28:08;60.58;;;26.17;;
63945;SDS011;50122;56.330;43.838;2023-04-12T23:30:46;47.45;;;25.10;;
63945;SDS011;50122;56.330;43.838;2023-04-12T23:33:15;60.40;;;26.03;;
63945;SDS011;50122;56.330;43.838;2023-04-12T23:35:44;51.70;;;26.45;;
63945;SDS011;50122;56.330;43.838;2023-04-12T23:38:12;51.85;;;25.90;;
63945;SDS011;50122;56.330;43.838;2023-04-12T23:40:42;64.90;;;26.65;;
63945;SDS011;50122;56.330;43.838;2023-04-12T23:43:09;53.78;;;24.80;;
63945;SDS011;50122;56.330;43.838;2023-04-12T23:45:36;61.78;;;26.17;;
63945;SDS011;50122;56.330;43.838;2023-04-12T23:48:03;49.17;;;26.05;;
63945;SDS011;50122;56.330;43.838;2023-04-12T23:50:32;54.53;;;27.25;;
63945;SDS011;50122;56.330;43.838;2023-04-12T23:52:59;56.60;;;26.65;;
63945;SDS011;50122;56.330;43.838;2023-04-12T23:55:26;58.90;;;27.30;;
63945;SDS011;50122;56.330;43.838;2023-04-12T23:57:52;48.55;;;25.00;;
